createdAt,value
2023-08-28T00:01:21.523Z,19.00
2023-08-28T00:03:48.122Z,19.23
2023-08-28T00:06:16.135Z,18.38
2023-08-28T00:08:42.640Z,18.40
2023-08-28T00:11:09.100Z,18.67
2023-08-28T00:13:35.555Z,18.83
2023-08-28T00:16:02.508Z,18.65
2023-08-28T00:18:29.024Z,19.25
2023-08-28T00:20:56.118Z,18.60
2023-08-28T00:23:22.680Z,19.45
2023-08-28T00:25:49.174Z,19.50
2023-08-28T00:28:15.643Z,19.70
2023-08-28T00:30:42.116Z,19.85
2023-08-28T00:33:08.606Z,17.90
2023-08-28T00:35:37.986Z,18.05
2023-08-28T00:38:04.604Z,20.17
2023-08-28T00:40:31.133Z,19.08
2023-08-28T00:42:57.822Z,19.60
2023-08-28T00:45:24.667Z,19.80
2023-08-28T00:47:51.505Z,19.48
2023-08-28T00:50:18.552Z,19.48
2023-08-28T00:52:45.382Z,19.77
2023-08-28T00:55:12.342Z,18.45
2023-08-28T00:57:38.982Z,18.95
2023-08-28T01:00:06.968Z,20.02
2023-08-28T01:02:33.723Z,18.83
2023-08-28T01:05:00.919Z,19.60
2023-08-28T01:07:36.441Z,20.02
2023-08-28T01:10:12.146Z,18.08
2023-08-28T01:12:53.264Z,18.70
2023-08-28T01:15:22.403Z,19.05
2023-08-28T01:17:56.879Z,19.00
2023-08-28T01:20:25.171Z,19.13
2023-08-28T01:23:15.499Z,19.40
2023-08-28T01:25:42.505Z,18.48
2023-08-28T01:28:09.651Z,17.95
2023-08-28T01:30:36.446Z,18.38
2023-08-28T01:33:03.411Z,18.45
2023-08-28T01:35:33.082Z,19.92
2023-08-28T01:38:18.182Z,19.25
2023-08-28T01:41:02.023Z,19.65
2023-08-28T01:43:32.456Z,18.02
2023-08-28T01:46:00.712Z,18.02
2023-08-28T01:48:29.088Z,18.60
2023-08-28T01:50:56.052Z,17.77
2023-08-28T01:53:23.209Z,16.70
2023-08-28T01:56:09.664Z,17.48
2023-08-28T01:58:48.216Z,16.88
2023-08-28T02:01:15.357Z,17.33
2023-08-28T02:03:42.661Z,16.42
2023-08-28T02:06:10.115Z,16.70
2023-08-28T02:08:37.056Z,16.90
2023-08-28T02:11:03.899Z,16.52
2023-08-28T02:13:30.470Z,16.40
2023-08-28T02:15:57.194Z,18.23
2023-08-28T02:18:24.708Z,16.95
2023-08-28T02:20:52.062Z,16.20
2023-08-28T02:23:18.772Z,15.60
2023-08-28T02:25:48.921Z,16.83
2023-08-28T02:28:21.711Z,16.60
2023-08-28T02:30:48.664Z,15.90
2023-08-28T02:33:15.339Z,16.23
2023-08-28T02:35:41.938Z,15.68
2023-08-28T02:38:09.738Z,16.38
2023-08-28T02:40:39.865Z,19.27
2023-08-28T02:43:07.067Z,16.33
2023-08-28T02:45:35.269Z,17.63
2023-08-28T02:48:02.218Z,14.88
2023-08-28T02:50:28.669Z,14.27
2023-08-28T02:52:55.168Z,15.40
2023-08-28T02:55:23.218Z,16.50
2023-08-28T02:57:59.145Z,17.10
2023-08-28T03:00:25.823Z,16.80
2023-08-28T03:02:52.424Z,15.57
2023-08-28T03:05:18.940Z,16.08
2023-08-28T03:07:45.907Z,15.27
2023-08-28T03:10:12.464Z,15.73
2023-08-28T03:12:39.000Z,19.15
2023-08-28T03:15:06.065Z,19.20
2023-08-28T03:17:32.613Z,15.10
2023-08-28T03:19:59.212Z,15.27
2023-08-28T03:22:26.966Z,16.15
2023-08-28T03:24:53.550Z,14.73
2023-08-28T03:27:21.342Z,14.88
2023-08-28T03:29:47.840Z,19.80
2023-08-28T03:32:14.804Z,14.77
2023-08-28T03:34:41.343Z,14.93
2023-08-28T03:37:07.896Z,15.98
2023-08-28T03:39:34.377Z,15.00
2023-08-28T03:42:00.930Z,14.82
2023-08-28T03:44:27.431Z,15.65
2023-08-28T03:46:54.656Z,14.70
2023-08-28T03:49:21.076Z,13.98
2023-08-28T03:51:47.605Z,13.57
2023-08-28T03:54:14.083Z,14.35
2023-08-28T03:56:40.914Z,15.15
2023-08-28T03:59:07.691Z,13.77
2023-08-28T04:01:35.235Z,13.18
2023-08-28T04:04:02.004Z,15.30
2023-08-28T04:06:28.470Z,13.40
2023-08-28T04:08:55.035Z,13.15
2023-08-28T04:11:21.498Z,13.73
2023-08-28T04:13:48.032Z,15.25
2023-08-28T04:16:14.569Z,12.95
2023-08-28T04:18:41.028Z,12.60
2023-08-28T04:21:07.689Z,13.93
2023-08-28T04:23:34.225Z,13.75
2023-08-28T04:26:01.280Z,15.57
2023-08-28T04:28:29.048Z,15.18
2023-08-28T04:30:55.649Z,15.40
2023-08-28T04:33:22.124Z,15.70
2023-08-28T04:35:48.545Z,16.00
2023-08-28T04:38:15.145Z,17.25
2023-08-28T04:40:41.621Z,17.02
2023-08-28T04:43:08.221Z,17.95
2023-08-28T04:45:35.317Z,17.77
2023-08-28T04:48:01.864Z,17.98
2023-08-28T04:50:29.107Z,17.83
2023-08-28T04:52:55.730Z,17.17
2023-08-28T04:55:22.256Z,17.83
2023-08-28T04:57:48.747Z,19.15
2023-08-28T05:00:15.783Z,17.55
2023-08-28T05:02:42.254Z,17.17
2023-08-28T05:05:08.913Z,17.15
2023-08-28T05:07:35.391Z,18.67
2023-08-28T05:10:01.882Z,24.35
2023-08-28T05:12:28.382Z,21.27
2023-08-28T05:14:54.819Z,19.95
2023-08-28T05:17:21.353Z,31.95
2023-08-28T05:19:47.782Z,19.67
2023-08-28T05:22:14.321Z,17.60
2023-08-28T05:24:41.286Z,20.45
2023-08-28T05:27:09.394Z,20.58
2023-08-28T05:29:35.891Z,21.05
2023-08-28T05:32:02.538Z,17.13
2023-08-28T05:34:29.207Z,17.10
2023-08-28T05:36:55.819Z,15.95
2023-08-28T05:39:22.282Z,16.17
2023-08-28T05:41:48.771Z,16.70
2023-08-28T05:44:15.336Z,16.73
2023-08-28T05:46:41.874Z,13.00
2023-08-28T05:49:08.466Z,17.42
2023-08-28T05:51:35.381Z,14.93
2023-08-28T05:54:01.811Z,16.85
2023-08-28T05:56:28.343Z,16.25
2023-08-28T05:58:54.786Z,14.85
2023-08-28T06:01:21.284Z,14.02
2023-08-28T06:03:47.875Z,13.50
2023-08-28T06:06:14.490Z,13.68
2023-08-28T06:08:40.971Z,13.63
2023-08-28T06:11:07.424Z,16.42
2023-08-28T06:13:33.924Z,12.93
2023-08-28T06:16:00.402Z,14.32
2023-08-28T06:18:27.946Z,11.80
2023-08-28T06:20:54.718Z,12.43
2023-08-28T06:23:21.847Z,13.85
2023-08-28T06:25:49.057Z,15.60
2023-08-28T06:28:15.652Z,14.57
2023-08-28T06:30:42.740Z,11.82
2023-08-28T06:33:09.653Z,13.43
2023-08-28T06:35:36.164Z,12.35
2023-08-28T06:38:02.599Z,11.77
2023-08-28T06:40:29.074Z,11.85
2023-08-28T06:43:02.136Z,12.10
2023-08-28T06:45:28.845Z,11.35
2023-08-28T06:47:55.345Z,11.38
2023-08-28T06:50:21.777Z,10.98
2023-08-28T06:52:48.200Z,13.10
2023-08-28T06:55:14.712Z,11.38
2023-08-28T06:57:41.659Z,11.75
2023-08-28T07:00:09.886Z,13.95
2023-08-28T07:02:37.509Z,11.63
2023-08-28T07:05:04.133Z,15.10
2023-08-28T07:07:30.614Z,13.07
2023-08-28T07:09:57.046Z,11.38
2023-08-28T07:12:23.466Z,12.25
2023-08-28T07:15:11.562Z,11.30
2023-08-28T07:17:40.888Z,10.60
2023-08-28T07:20:10.446Z,11.85
2023-08-28T07:22:37.448Z,11.20
2023-08-28T07:25:04.158Z,11.15
2023-08-28T07:27:30.633Z,10.77
2023-08-28T07:29:57.234Z,11.38
2023-08-28T07:32:23.700Z,10.75
2023-08-28T07:34:50.240Z,12.48
2023-08-28T07:37:17.689Z,11.88
2023-08-28T07:39:45.585Z,11.35
2023-08-28T07:42:12.052Z,11.73
2023-08-28T07:44:38.518Z,11.20
2023-08-28T07:47:06.928Z,10.90
2023-08-28T07:49:33.490Z,10.15
2023-08-28T07:51:59.934Z,11.68
2023-08-28T07:54:26.360Z,12.20
2023-08-28T07:56:52.784Z,13.98
2023-08-28T07:59:19.237Z,13.15
2023-08-28T08:01:45.719Z,11.98
2023-08-28T08:04:12.332Z,11.07
2023-08-28T08:06:39.986Z,10.75
2023-08-28T08:09:06.596Z,12.68
2023-08-28T08:11:33.255Z,11.25
2023-08-28T08:13:59.761Z,11.18
2023-08-28T08:16:26.366Z,10.65
2023-08-28T08:18:53.031Z,11.65
2023-08-28T08:21:19.511Z,11.02
2023-08-28T08:23:49.076Z,11.52
2023-08-28T08:26:16.170Z,13.68
2023-08-28T08:28:42.616Z,13.13
2023-08-28T08:31:09.128Z,10.85
2023-08-28T08:33:35.603Z,11.00
2023-08-28T08:36:02.167Z,12.93
2023-08-28T08:38:28.602Z,10.63
2023-08-28T08:40:59.591Z,11.95
2023-08-28T08:43:29.282Z,10.65
2023-08-28T08:46:02.191Z,10.90
2023-08-28T08:48:30.172Z,11.60
2023-08-28T08:51:05.463Z,12.60
2023-08-28T08:53:42.796Z,11.30
2023-08-28T08:56:13.362Z,11.48
2023-08-28T08:58:41.157Z,11.40
2023-08-28T09:01:08.270Z,11.63
2023-08-28T09:03:35.371Z,13.82
2023-08-28T09:06:02.794Z,16.38
2023-08-28T09:08:30.566Z,16.02
2023-08-28T09:11:02.812Z,13.15
2023-08-28T09:13:29.353Z,15.32
2023-08-28T09:15:55.953Z,13.57
2023-08-28T09:18:22.649Z,15.38
2023-08-28T09:21:06.511Z,15.52
2023-08-28T09:23:33.428Z,14.38
2023-08-28T09:26:00.426Z,12.93
2023-08-28T09:28:27.585Z,14.98
2023-08-28T09:30:54.054Z,13.00
2023-08-28T09:33:21.394Z,14.50
2023-08-28T09:35:47.879Z,13.25
2023-08-28T09:38:14.344Z,13.02
2023-08-28T09:40:42.488Z,15.05
2023-08-28T09:43:14.505Z,13.25
2023-08-28T09:45:45.469Z,15.43
2023-08-28T09:48:13.344Z,12.50
2023-08-28T09:50:41.958Z,14.82
2023-08-28T09:53:15.461Z,13.85
2023-08-28T09:55:50.294Z,13.27
2023-08-28T09:58:17.803Z,15.32
2023-08-28T10:00:44.911Z,14.32
2023-08-28T10:03:13.633Z,13.40
2023-08-28T10:05:41.910Z,13.07
2023-08-28T10:08:10.412Z,13.00
2023-08-28T10:10:40.948Z,13.73
2023-08-28T10:13:14.535Z,12.73
2023-08-28T10:16:06.293Z,13.23
2023-08-28T10:18:37.219Z,14.65
2023-08-28T10:21:04.388Z,15.00
2023-08-28T10:23:31.774Z,13.82
2023-08-28T10:26:00.361Z,13.60
2023-08-28T10:28:28.618Z,14.93
2023-08-28T10:30:57.065Z,12.93
2023-08-28T10:33:24.497Z,12.27
2023-08-28T10:35:53.092Z,11.95
2023-08-28T10:38:23.928Z,12.38
2023-08-28T10:40:54.871Z,11.60
2023-08-28T10:43:23.914Z,12.70
2023-08-28T10:45:58.475Z,12.13
2023-08-28T10:48:25.093Z,11.85
2023-08-28T10:50:58.096Z,11.73
2023-08-28T10:53:26.139Z,12.40
2023-08-28T10:55:56.701Z,12.68
2023-08-28T10:58:23.321Z,13.20
2023-08-28T11:00:49.845Z,12.77
2023-08-28T11:03:16.816Z,12.70
2023-08-28T11:05:43.477Z,13.10
2023-08-28T11:08:12.877Z,12.65
2023-08-28T11:10:45.308Z,12.55
2023-08-28T11:13:24.871Z,12.45
2023-08-28T11:16:03.343Z,11.80
2023-08-28T11:18:31.587Z,12.13
2023-08-28T11:21:04.179Z,12.48
2023-08-28T11:23:37.892Z,13.38
2023-08-28T11:26:29.083Z,13.18
2023-08-28T11:28:55.684Z,13.10
2023-08-28T11:31:34.462Z,13.02
2023-08-28T11:34:00.959Z,14.20
2023-08-28T11:36:27.491Z,13.38
2023-08-28T11:38:56.103Z,13.82
2023-08-28T11:41:23.710Z,12.70
2023-08-28T11:43:50.391Z,12.15
2023-08-28T11:46:18.260Z,14.07
2023-08-28T11:48:49.469Z,12.45
2023-08-28T11:51:16.131Z,13.63
2023-08-28T11:53:44.226Z,12.57
2023-08-28T11:56:13.315Z,11.68
2023-08-28T11:58:41.748Z,10.80
2023-08-28T12:01:11.602Z,12.18
2023-08-28T12:03:39.368Z,12.93
2023-08-28T12:06:08.546Z,11.70
2023-08-28T12:08:37.202Z,11.77
2023-08-28T12:11:08.329Z,12.85
2023-08-28T12:13:38.954Z,11.60
2023-08-28T12:16:16.020Z,11.85
2023-08-28T12:18:54.389Z,12.77
2023-08-28T12:21:37.115Z,12.25
2023-08-28T12:24:05.433Z,11.68
2023-08-28T12:26:31.911Z,11.00
2023-08-28T12:28:58.595Z,10.57
2023-08-28T12:31:31.568Z,10.65
2023-08-28T12:33:58.293Z,12.15
2023-08-28T12:36:44.249Z,10.75
2023-08-28T12:39:20.774Z,12.85
2023-08-28T12:41:52.264Z,11.82
2023-08-28T12:44:19.263Z,11.93
2023-08-28T12:46:46.810Z,10.30
2023-08-28T12:49:14.239Z,10.70
2023-08-28T12:51:43.095Z,10.80
2023-08-28T12:54:10.219Z,10.70
2023-08-28T12:56:37.439Z,12.52
2023-08-28T12:59:04.868Z,10.95
2023-08-28T13:01:31.948Z,11.25
2023-08-28T13:03:58.907Z,12.88
2023-08-28T13:06:25.550Z,13.23
2023-08-28T13:08:52.661Z,10.90
2023-08-28T13:11:19.544Z,10.32
2023-08-28T13:13:46.578Z,11.40
2023-08-28T13:16:13.313Z,12.15
2023-08-28T13:18:40.649Z,10.95
2023-08-28T13:21:08.942Z,11.00
2023-08-28T13:23:36.002Z,11.85
2023-08-28T13:26:03.571Z,11.70
2023-08-28T13:28:30.862Z,11.60
2023-08-28T13:30:57.336Z,10.93
2023-08-28T13:33:23.808Z,13.32
2023-08-28T13:35:50.546Z,10.80
2023-08-28T13:38:17.486Z,12.40
2023-08-28T13:40:44.146Z,11.27
2023-08-28T13:43:10.676Z,11.50
2023-08-28T13:45:37.159Z,10.40
2023-08-28T13:48:04.269Z,10.30
2023-08-28T13:50:30.841Z,10.65
2023-08-28T13:52:57.351Z,10.70
2023-08-28T13:55:23.791Z,11.00
2023-08-28T13:57:50.639Z,11.10
2023-08-28T14:00:17.938Z,11.73
2023-08-28T14:02:44.734Z,12.07
2023-08-28T14:05:15.462Z,11.60
2023-08-28T14:07:42.424Z,11.80
2023-08-28T14:10:10.136Z,14.98
2023-08-28T14:12:36.920Z,11.95
2023-08-28T14:15:04.825Z,14.38
2023-08-28T14:17:31.992Z,11.73
2023-08-28T14:19:59.570Z,12.25
2023-08-28T14:22:26.696Z,14.68
2023-08-28T14:24:53.213Z,14.13
2023-08-28T14:27:19.694Z,12.48
2023-08-28T14:29:46.189Z,14.48
2023-08-28T14:32:13.852Z,13.80
2023-08-28T14:34:40.435Z,13.80
2023-08-28T14:37:07.016Z,14.10
2023-08-28T14:39:33.433Z,13.90
2023-08-28T14:41:59.904Z,13.77
2023-08-28T14:44:26.711Z,13.80
2023-08-28T14:46:53.258Z,14.02
2023-08-28T14:49:19.770Z,12.70
2023-08-28T14:51:46.359Z,11.40
2023-08-28T14:54:12.834Z,11.48
2023-08-28T14:56:39.287Z,11.57
2023-08-28T14:59:05.726Z,10.63
2023-08-28T15:01:32.282Z,10.52
2023-08-28T15:03:58.728Z,10.52
2023-08-28T15:06:25.257Z,11.45
2023-08-28T15:08:51.709Z,12.82
2023-08-28T15:11:18.122Z,11.98
2023-08-28T15:13:44.597Z,13.80
2023-08-28T15:16:11.217Z,11.55
2023-08-28T15:18:39.293Z,10.80
2023-08-28T15:21:05.825Z,12.85
2023-08-28T15:23:32.290Z,13.25
2023-08-28T15:25:58.990Z,12.93
2023-08-28T15:28:25.518Z,10.48
2023-08-28T15:30:53.182Z,13.38
2023-08-28T15:33:19.677Z,12.30
2023-08-28T15:35:46.120Z,10.38
2023-08-28T15:38:12.566Z,10.15
2023-08-28T15:40:39.088Z,10.02
2023-08-28T15:43:05.843Z,9.95
2023-08-28T15:45:32.501Z,9.85
2023-08-28T15:47:59.045Z,10.00
2023-08-28T15:50:25.647Z,10.15
2023-08-28T15:52:52.158Z,10.20
2023-08-28T15:55:18.834Z,9.82
2023-08-28T15:57:45.726Z,9.98
2023-08-28T16:00:12.710Z,10.27
2023-08-28T16:02:39.284Z,9.77
2023-08-28T16:05:06.454Z,10.15
2023-08-28T16:07:33.070Z,10.85
2023-08-28T16:09:59.527Z,11.07
2023-08-28T16:12:26.289Z,12.02
2023-08-28T16:14:52.761Z,11.00
2023-08-28T16:17:19.235Z,11.25
2023-08-28T16:19:45.686Z,10.27
2023-08-28T16:22:12.157Z,10.57
2023-08-28T16:24:38.671Z,11.20
2023-08-28T16:27:05.451Z,10.52
2023-08-28T16:29:31.952Z,11.23
2023-08-28T16:31:58.935Z,10.82
2023-08-28T16:34:25.493Z,10.63
2023-08-28T16:36:51.920Z,11.10
2023-08-28T16:39:18.537Z,9.95
2023-08-28T16:41:45.154Z,10.73
2023-08-28T16:44:11.699Z,10.80
2023-08-28T16:46:39.080Z,10.93
2023-08-28T16:49:05.810Z,10.70
2023-08-28T16:51:32.309Z,11.30
2023-08-28T16:53:58.748Z,10.82
2023-08-28T16:56:25.286Z,11.10
2023-08-28T16:58:53.478Z,11.30
2023-08-28T17:01:19.982Z,10.48
2023-08-28T17:03:46.584Z,11.18
2023-08-28T17:06:13.701Z,11.70
2023-08-28T17:08:40.115Z,10.98
2023-08-28T17:11:07.105Z,10.80
2023-08-28T17:13:33.648Z,11.30
2023-08-28T17:16:00.824Z,11.30
2023-08-28T17:18:27.501Z,10.30
2023-08-28T17:20:54.061Z,12.02
2023-08-28T17:23:20.533Z,12.23
2023-08-28T17:25:47.834Z,10.48
2023-08-28T17:28:16.818Z,10.65
2023-08-28T17:30:43.303Z,11.00
2023-08-28T17:33:10.223Z,11.13
2023-08-28T17:35:36.808Z,13.30
2023-08-28T17:38:03.393Z,11.50
2023-08-28T17:40:30.511Z,11.52
2023-08-28T17:42:58.070Z,11.93
2023-08-28T17:45:26.272Z,11.27
2023-08-28T17:47:55.193Z,9.50
2023-08-28T17:50:23.751Z,9.20
2023-08-28T17:52:51.610Z,8.95
2023-08-28T17:55:19.477Z,9.38
2023-08-28T17:57:47.696Z,9.50
2023-08-28T18:00:15.677Z,9.40
2023-08-28T18:02:58.941Z,9.07
2023-08-28T18:05:29.446Z,9.30
2023-08-28T18:08:02.884Z,9.98
2023-08-28T18:10:32.048Z,9.38
2023-08-28T18:12:59.129Z,9.75
2023-08-28T18:15:26.064Z,9.25
2023-08-28T18:17:52.656Z,9.60
2023-08-28T18:20:21.120Z,9.50
2023-08-28T18:22:47.766Z,9.18
2023-08-28T18:25:14.809Z,9.32
2023-08-28T18:28:00.113Z,9.30
2023-08-28T18:30:28.277Z,8.98
2023-08-28T18:32:54.869Z,9.82
2023-08-28T18:35:21.752Z,9.23
2023-08-28T18:37:48.599Z,12.07
2023-08-28T18:40:15.092Z,12.05
2023-08-28T18:42:42.180Z,12.75
2023-08-28T18:45:09.706Z,12.30
2023-08-28T18:47:36.725Z,12.30
2023-08-28T18:50:04.117Z,12.88
2023-08-28T18:52:30.564Z,12.68
2023-08-28T18:54:56.994Z,15.43
2023-08-28T18:57:24.572Z,12.95
2023-08-28T18:59:51.036Z,12.55
2023-08-28T19:02:19.784Z,12.95
2023-08-28T19:04:46.287Z,12.73
2023-08-28T19:07:13.067Z,12.77
2023-08-28T19:09:40.631Z,12.68
2023-08-28T19:12:07.698Z,12.50
2023-08-28T19:14:34.158Z,13.00
2023-08-28T19:17:00.639Z,12.38
2023-08-28T19:19:27.111Z,12.70
2023-08-28T19:21:53.598Z,13.00
2023-08-28T19:24:20.205Z,12.57
2023-08-28T19:26:46.711Z,12.38
2023-08-28T19:29:13.188Z,12.43
2023-08-28T19:31:39.700Z,12.77
2023-08-28T19:34:06.303Z,13.30
2023-08-28T19:36:32.793Z,12.85
2023-08-28T19:38:59.414Z,13.90
2023-08-28T19:41:26.045Z,13.10
2023-08-28T19:43:52.746Z,13.20
2023-08-28T19:46:19.207Z,13.25
2023-08-28T19:48:45.906Z,13.38
2023-08-28T19:51:12.514Z,13.00
2023-08-28T19:53:38.992Z,12.73
2023-08-28T19:56:05.519Z,13.82
2023-08-28T19:58:34.319Z,13.25
2023-08-28T20:01:01.777Z,13.70
2023-08-28T20:03:28.515Z,13.57
2023-08-28T20:06:02.072Z,13.60
2023-08-28T20:08:32.077Z,13.07
2023-08-28T20:11:02.165Z,13.48
2023-08-28T20:13:28.887Z,13.75
2023-08-28T20:15:56.959Z,14.00
2023-08-28T20:18:24.124Z,14.07
2023-08-28T20:20:51.044Z,14.30
2023-08-28T20:23:20.410Z,14.15
2023-08-28T20:25:47.819Z,14.07
2023-08-28T20:28:18.130Z,17.48
2023-08-28T20:33:12.632Z,15.82
2023-08-28T20:35:40.121Z,16.02
2023-08-28T20:38:07.485Z,16.30
2023-08-28T20:40:35.216Z,16.88
2023-08-28T20:43:04.695Z,16.55
2023-08-28T20:45:31.466Z,16.77
2023-08-28T20:47:57.992Z,16.77
2023-08-28T20:50:25.643Z,16.17
2023-08-28T20:52:52.139Z,15.45
2023-08-28T20:55:19.882Z,15.88
2023-08-28T20:57:46.521Z,15.98
2023-08-28T21:00:13.532Z,15.93
2023-08-28T21:02:39.990Z,15.07
2023-08-28T21:05:06.876Z,16.13
2023-08-28T21:07:33.404Z,15.43
2023-08-28T21:09:59.930Z,14.57
2023-08-28T21:12:26.407Z,15.95
2023-08-28T21:14:52.845Z,14.70
2023-08-28T21:17:19.518Z,15.10
2023-08-28T21:19:45.968Z,15.43
2023-08-28T21:22:12.536Z,17.25
2023-08-28T21:24:39.063Z,16.52
2023-08-28T21:27:05.570Z,16.50
2023-08-28T21:29:32.128Z,15.88
2023-08-28T21:32:00.340Z,16.00
2023-08-28T21:34:27.074Z,15.20
2023-08-28T21:36:53.688Z,15.90
2023-08-28T21:39:20.357Z,15.80
2023-08-28T21:41:46.810Z,16.17
2023-08-28T21:44:13.275Z,15.77
2023-08-28T21:46:39.757Z,17.15
2023-08-28T21:49:06.216Z,16.20
2023-08-28T21:51:33.701Z,15.32
2023-08-28T21:54:00.425Z,16.00
2023-08-28T21:56:26.912Z,15.52
2023-08-28T21:58:53.368Z,15.98
2023-08-28T22:01:19.922Z,16.83
2023-08-28T22:03:46.360Z,16.40
2023-08-28T22:06:12.803Z,17.00
2023-08-28T22:08:39.455Z,16.58
2023-08-28T22:11:05.905Z,16.70
2023-08-28T22:13:32.379Z,16.55
2023-08-28T22:16:00.008Z,16.70
2023-08-28T22:18:26.631Z,16.83
2023-08-28T22:20:53.874Z,16.50
2023-08-28T22:23:20.677Z,16.75
2023-08-28T22:25:47.225Z,16.63
2023-08-28T22:28:14.403Z,16.83
2023-08-28T22:30:41.022Z,16.27
2023-08-28T22:33:07.729Z,16.83
2023-08-28T22:35:35.011Z,17.67
2023-08-28T22:38:02.591Z,17.75
2023-08-28T22:40:31.252Z,18.55
2023-08-28T22:42:59.300Z,17.70
2023-08-28T22:45:33.190Z,16.83
2023-08-28T22:48:01.247Z,17.48
2023-08-28T22:50:31.735Z,19.08
2023-08-28T22:53:00.570Z,18.60
2023-08-28T22:55:31.089Z,18.30
2023-08-28T22:57:59.249Z,17.92
2023-08-28T23:00:28.107Z,17.42
2023-08-28T23:02:55.291Z,17.25
2023-08-28T23:05:21.794Z,17.25
2023-08-28T23:07:48.280Z,17.38
2023-08-28T23:10:14.869Z,17.60
2023-08-28T23:12:41.396Z,17.13
2023-08-28T23:15:08.021Z,18.17
2023-08-28T23:17:34.663Z,17.90
2023-08-28T23:20:02.757Z,17.85
2023-08-28T23:22:29.261Z,17.67
2023-08-28T23:24:55.687Z,17.98
2023-08-28T23:27:22.166Z,17.23
2023-08-28T23:29:50.851Z,16.88
2023-08-28T23:32:17.334Z,17.60
2023-08-28T23:34:45.280Z,17.65
2023-08-28T23:37:11.783Z,18.17
2023-08-28T23:39:38.293Z,17.85
2023-08-28T23:42:05.199Z,18.05
2023-08-28T23:44:32.062Z,17.73
2023-08-28T23:46:58.569Z,17.80
2023-08-28T23:49:25.102Z,18.42
2023-08-28T23:51:51.620Z,19.02
2023-08-28T23:54:18.086Z,18.60
2023-08-28T23:56:44.561Z,19.90
2023-08-28T23:59:11.168Z,18.77
